Duke Street, Reading, Berkshire, RG1 4RU, United Kingdom

Camera Oscura

Reading Town Centre Webcam

Oscura's Reading Webcam is aimed out of our top floor offices in Duke Street, central Reading town centre, Berkshire. Our camera is facing South West with a view of the Reading Oracle Shopping Centre.

Current weather conditions and forecast for Reading, Berkshire

When Temp Weather Wind Cloud Humidity Rain Snow
Now 12C Fair 4mph WSW 19% 95% 0% 0%
21 Jul 06:00 11C Fair 6mph WSW 66% 96% 0% 0%
21 Jul 09:00 14C 6mph SW 88% 88% 0% 0%
21 Jul 12:00 18C Partly Cloudy 8mph SW 94% 70% 0% 0%
21 Jul 15:00 19C Partly Cloudy 11mph SW 89% 69% 23% 0%
21 Jul 18:00 20C Partly Cloudy 11mph SW 87% 68% 0% 0%
21 Jul 21:00 18C Partly Cloudy 8mph SW 91% 80% 0% 0%
22 Jul 00:00 15C Fair 8mph SSW 75% 93% 0% 0%
22 Jul 03:00 15C Partly Cloudy 11mph SW 92% 97% 0% 0%
22 Jul 06:00 15C Partly Cloudy 8mph SW 94% 97% 0% 0%
22 Jul 09:00 17C Cloudy 11mph SW 96% 89% 0% 0%
22 Jul 12:00 21C Partly Cloudy 11mph SW 86% 78% 0% 0%
22 Jul 15:00 24C Partly Cloudy 11mph SW 69% 71% 0% 0%
22 Jul 18:00 24C Fair 11mph SW 55% 72% 0% 0%
22 Jul 21:00 22C Partly Cloudy 6mph SSW 67% 84% 0% 0%
23 Jul 00:00 18C Clear 2mph SW 5% 93% 0% 0%
23 Jul 03:00 15C Clear 2mph S 0% 93% 0% 0%
23 Jul 06:00 14C Fair 2mph SE 8% 91% 0% 0%
23 Jul 09:00 18C Clear 4mph ENE 0% 77% 0% 0%
23 Jul 12:00 23C Clear 8mph SE 0% 65% 0% 0%
23 Jul 16:00 27C Clear 13mph SE 0% 53% 0% 0%
23 Jul 19:00 26C Clear 11mph SE 0% 61% 0% 0%
23 Jul 22:00 23C Partly Cloudy 8mph ESE 73% 71% 0% 0%
24 Jul 01:00 19C Intermittent Rain 6mph SE 97% 82% 18% 0%
24 Jul 04:00 19C 6mph SE 91% 81% 0% 0%


Oscura provide website development, web server hosting, Internet services and IT Support in Reading and the surrounding area.